createdAt,value
2022-08-09T00:00:11.457Z,102789.75
2022-08-09T00:02:42.903Z,102792.38
2022-08-09T00:06:18.225Z,102800.25
2022-08-09T00:08:04.561Z,102796.75
2022-08-09T00:10:38.742Z,102792.38
2022-08-09T00:13:17.174Z,102798.47
2022-08-09T00:15:59.362Z,102795.84
2022-08-09T00:18:35.704Z,102789.69
2022-08-09T00:21:08.605Z,102794.91
2022-08-09T00:23:54.930Z,102794.03
2022-08-09T00:26:30.030Z,102794.88
2022-08-09T00:29:01.862Z,102781.72
2022-08-09T00:31:57.010Z,102790.50
2022-08-09T00:34:19.327Z,102793.97
2022-08-09T00:36:48.041Z,102791.31
2022-08-09T00:40:01.977Z,102792.19
2022-08-09T00:44:14.578Z,102790.41
2022-08-09T00:44:51.656Z,102791.28
2022-08-09T00:47:21.512Z,102800.88
2022-08-09T00:49:54.837Z,102796.53
2022-08-09T00:52:30.010Z,102796.50
2022-08-09T00:55:02.541Z,102794.75
2022-08-09T00:57:34.511Z,102774.59
2022-08-09T01:00:21.107Z,102791.22
2022-08-09T01:02:54.676Z,102792.00
2022-08-09T01:05:58.762Z,102785.88
2022-08-09T01:09:06.683Z,102786.75
2022-08-09T01:11:39.960Z,102798.09
2022-08-09T01:14:48.079Z,102793.69
2022-08-09T01:17:30.404Z,102797.16
2022-08-09T01:20:12.556Z,102801.50
2022-08-09T01:22:55.297Z,102800.66
2022-08-09T01:25:37.494Z,102788.31
2022-08-09T01:28:10.624Z,102793.56
2022-08-09T01:30:51.876Z,102804.94
2022-08-09T01:33:23.427Z,102797.03
2022-08-09T01:36:10.162Z,102804.03
2022-08-09T01:38:41.642Z,102794.41
2022-08-09T01:41:26.000Z,102801.38
2022-08-09T01:43:56.492Z,102801.38
2022-08-09T01:46:24.336Z,102802.25
2022-08-09T01:49:00.177Z,102793.47
2022-08-09T01:51:42.849Z,102797.84
2022-08-09T01:54:14.987Z,102795.19
2022-08-09T01:56:47.171Z,102798.69
2022-08-09T01:59:23.021Z,102796.00
2022-08-09T02:01:59.366Z,102816.09
2022-08-09T02:04:30.502Z,102812.59
2022-08-09T02:08:34.855Z,102803.84
2022-08-09T02:10:14.636Z,102805.59
2022-08-09T02:12:43.967Z,102789.88
2022-08-09T02:15:16.921Z,102803.81
2022-08-09T02:18:01.102Z,102807.31
2022-08-09T02:20:39.561Z,102808.16
2022-08-09T02:23:26.925Z,102808.16
2022-08-09T02:26:00.326Z,102809.03
2022-08-09T02:28:35.151Z,102809.88
2022-08-09T02:31:07.041Z,102803.78
2022-08-09T02:34:06.350Z,102804.66
2022-08-09T02:36:43.285Z,102811.59
2022-08-09T02:39:33.265Z,102814.22
2022-08-09T02:42:06.673Z,102812.38
2022-08-09T02:44:38.594Z,102808.88
2022-08-09T02:47:09.726Z,102810.59
2022-08-09T02:49:41.894Z,102803.63
2022-08-09T02:52:14.537Z,102794.91
2022-08-09T02:54:54.071Z,102784.38
2022-08-09T02:57:25.076Z,102784.38
2022-08-09T03:00:21.179Z,102785.19
2022-08-09T03:02:58.234Z,102779.94
2022-08-09T03:05:28.922Z,102776.41
2022-08-09T03:07:56.720Z,102774.72
2022-08-09T03:10:27.140Z,102782.56
2022-08-09T03:12:56.157Z,102782.53
2022-08-09T03:16:04.277Z,102780.78
2022-08-09T03:18:15.225Z,102766.78
2022-08-09T03:20:59.802Z,102776.41
2022-08-09T03:23:28.366Z,102775.59
2022-08-09T03:26:03.430Z,102766.75
2022-08-09T03:28:33.702Z,102778.16
2022-08-09T03:31:04.455Z,102775.53
2022-08-09T03:33:53.498Z,102777.31
2022-08-09T03:36:27.579Z,102777.28
2022-08-09T03:38:56.414Z,102778.16
2022-08-09T03:41:30.325Z,102790.38
2022-08-09T03:44:12.072Z,102780.78
2022-08-09T03:46:39.782Z,102778.16
2022-08-09T03:49:09.557Z,102780.75
2022-08-09T03:51:55.661Z,102786.84
2022-08-09T03:54:38.435Z,102792.91
2022-08-09T03:57:18.390Z,102793.75
2022-08-09T03:59:53.669Z,102792.91
2022-08-09T04:02:26.201Z,102799.00
2022-08-09T04:04:56.835Z,102808.56
2022-08-09T04:07:47.858Z,102806.78
2022-08-09T04:10:14.577Z,102801.44
2022-08-09T04:12:49.760Z,102795.31
2022-08-09T04:15:40.591Z,102810.16
2022-08-09T04:18:07.275Z,102809.28
2022-08-09T04:20:35.009Z,102806.69
2022-08-09T04:23:02.582Z,102813.66
2022-08-09T04:25:37.346Z,102802.22
2022-08-09T04:28:05.142Z,102821.47
2022-08-09T04:30:33.067Z,102823.16
2022-08-09T04:33:01.768Z,102827.56
2022-08-09T04:35:29.459Z,102831.03
2022-08-09T04:38:03.720Z,102842.41
2022-08-09T04:40:48.222Z,102835.47
2022-08-09T04:43:25.343Z,102846.75
2022-08-09T04:45:54.398Z,102837.09
2022-08-09T04:48:23.865Z,102838.84
2022-08-09T04:51:00.853Z,102827.44
2022-08-09T04:53:29.452Z,102836.28
2022-08-09T04:55:59.811Z,102834.50
2022-08-09T04:58:32.780Z,102844.13
2022-08-09T05:01:02.484Z,102841.50
2022-08-09T05:03:43.346Z,102841.56
2022-08-09T05:06:22.133Z,102846.78
2022-08-09T05:09:00.441Z,102831.97
2022-08-09T05:11:30.656Z,102838.13
2022-08-09T05:14:00.451Z,102846.00
2022-08-09T05:16:31.495Z,102848.72
2022-08-09T05:19:00.402Z,102848.72
2022-08-09T05:21:36.635Z,102846.19
2022-08-09T05:24:14.443Z,102838.41
2022-08-09T05:26:46.050Z,102838.38
2022-08-09T05:29:21.995Z,102848.09
2022-08-09T05:31:57.100Z,102858.66
2022-08-09T05:34:31.012Z,102851.78
2022-08-09T05:37:05.324Z,102858.84
2022-08-09T05:39:42.559Z,102856.31
2022-08-09T05:42:20.749Z,102859.84
2022-08-09T05:44:52.979Z,102860.72
2022-08-09T05:47:25.122Z,102866.91
2022-08-09T05:50:31.858Z,102866.97
2022-08-09T05:52:53.611Z,102872.28
2022-08-09T05:55:24.007Z,102868.91
2022-08-09T05:57:56.818Z,102875.09
2022-08-09T06:00:31.047Z,102870.75
2022-08-09T06:03:03.316Z,102873.44
2022-08-09T06:05:57.272Z,102877.84
2022-08-09T06:08:24.914Z,102863.03
2022-08-09T06:10:56.960Z,102875.44
2022-08-09T06:13:28.551Z,102868.41
2022-08-09T06:16:01.704Z,102878.16
2022-08-09T06:18:33.538Z,102886.94
2022-08-09T06:21:02.216Z,102878.22
2022-08-09T06:23:55.376Z,102880.00
2022-08-09T06:26:22.714Z,102881.81
2022-08-09T06:29:00.148Z,102880.09
2022-08-09T06:31:31.590Z,102880.97
2022-08-09T06:34:07.787Z,102876.63
2022-08-09T06:36:37.276Z,102880.16
2022-08-09T06:39:12.405Z,102879.25
2022-08-09T06:42:08.742Z,102881.88
2022-08-09T06:44:28.150Z,102894.16
2022-08-09T06:46:55.921Z,102896.78
2022-08-09T06:49:29.227Z,102895.91
2022-08-09T06:52:12.336Z,102902.00
2022-08-09T06:54:43.745Z,102901.13
2022-08-09T06:57:11.945Z,102915.16
2022-08-09T07:00:55.529Z,102902.84
2022-08-09T07:02:31.005Z,102906.34
2022-08-09T07:05:00.101Z,102909.81
2022-08-09T07:08:00.201Z,102908.03
2022-08-09T07:10:24.034Z,102904.50
2022-08-09T07:12:58.351Z,102904.50
2022-08-09T07:16:36.747Z,102907.94
2022-08-09T07:18:15.003Z,102907.97
2022-08-09T07:20:44.442Z,102899.97
2022-08-09T07:23:18.104Z,102904.34
2022-08-09T07:25:47.781Z,102903.41
2022-08-09T07:28:26.207Z,102904.28
2022-08-09T07:30:56.294Z,102903.44
2022-08-09T07:33:24.079Z,102898.97
2022-08-09T07:35:53.397Z,102904.19
2022-08-09T07:38:23.432Z,102909.41
2022-08-09T07:41:00.885Z,102898.84
2022-08-09T07:43:41.478Z,102897.72
2022-08-09T07:46:19.267Z,102900.44
2022-08-09T07:48:52.792Z,102894.28
2022-08-09T07:52:03.338Z,102889.72
2022-08-09T07:54:19.251Z,102881.56
2022-08-09T07:56:55.891Z,102890.50
2022-08-09T07:59:33.842Z,102889.44
2022-08-09T08:02:11.179Z,102887.09
2022-08-09T08:04:48.618Z,102889.63
2022-08-09T08:08:43.723Z,102897.16
2022-08-09T08:10:08.690Z,102887.13
2022-08-09T08:12:45.620Z,102892.38
2022-08-09T08:15:17.597Z,102888.09
2022-08-09T08:17:52.829Z,102897.53
2022-08-09T08:20:29.574Z,102895.44
2022-08-09T08:23:03.748Z,102903.25
2022-08-09T08:25:48.105Z,102918.84
2022-08-09T08:28:18.393Z,102904.84
2022-08-09T08:31:03.473Z,102912.19
2022-08-09T08:33:40.712Z,102907.09
2022-08-09T08:36:28.375Z,102919.38
2022-08-09T08:38:57.468Z,102904.19
2022-08-09T08:41:41.778Z,102917.84
2022-08-09T08:44:14.411Z,102907.06
2022-08-09T08:47:03.249Z,102908.81
2022-08-09T08:49:46.793Z,102916.94
2022-08-09T08:55:05.648Z,102920.34
2022-08-09T08:57:35.401Z,102908.53
2022-08-09T09:00:12.842Z,102900.50
2022-08-09T09:02:52.486Z,102905.06
2022-08-09T09:05:33.043Z,102905.00
2022-08-09T09:08:30.320Z,102908.59
2022-08-09T09:11:03.363Z,102896.72
2022-08-09T09:13:55.847Z,102899.13
2022-08-09T09:16:35.596Z,102893.00
2022-08-09T09:22:02.608Z,102898.72
2022-08-09T09:24:37.904Z,102903.94
2022-08-09T09:27:08.501Z,102907.31
2022-08-09T09:32:34.346Z,102897.84
2022-08-09T09:35:15.682Z,102911.03
2022-08-09T09:37:47.031Z,102910.66
2022-08-09T09:40:15.152Z,102902.69
2022-08-09T09:42:56.553Z,102906.81
2022-08-09T09:45:26.863Z,102909.66
2022-08-09T09:47:58.538Z,102897.50
2022-08-09T09:50:51.039Z,102894.78
2022-08-09T09:53:43.664Z,102908.03
2022-08-09T09:56:31.017Z,102900.53
2022-08-09T09:58:57.986Z,102901.94
2022-08-09T10:01:31.352Z,102907.28
2022-08-09T10:04:13.465Z,102904.69
2022-08-09T10:06:51.914Z,102907.47
2022-08-09T10:09:24.037Z,102902.88
2022-08-09T10:12:15.023Z,102898.88
2022-08-09T10:14:51.531Z,102899.09
2022-08-09T10:17:50.653Z,102892.53
2022-08-09T10:20:31.871Z,102896.84
2022-08-09T10:23:13.642Z,102892.25
2022-08-09T10:26:07.839Z,102892.19
2022-08-09T10:28:35.549Z,102892.28
2022-08-09T10:34:10.127Z,102887.59
2022-08-09T10:36:42.286Z,102894.41
2022-08-09T10:39:15.723Z,102881.84
2022-08-09T10:41:45.874Z,102883.00
2022-08-09T10:44:18.796Z,102875.81
2022-08-09T10:48:12.499Z,102884.75
2022-08-09T10:50:46.947Z,102873.94
2022-08-09T10:53:39.722Z,102875.41
2022-08-09T10:56:23.698Z,102879.88
2022-08-09T10:58:55.535Z,102874.59
2022-08-09T11:03:15.528Z,102864.09
2022-08-09T11:04:31.691Z,102859.44
2022-08-09T11:07:01.033Z,102866.34
2022-08-09T11:09:47.917Z,102864.19
2022-08-09T11:12:30.345Z,102857.41
2022-08-09T11:15:23.932Z,102857.50
2022-08-09T11:17:56.841Z,102857.09
2022-08-09T11:20:43.287Z,102854.72
2022-08-09T11:23:11.735Z,102849.59
2022-08-09T11:25:47.490Z,102859.06
2022-08-09T11:28:55.742Z,102838.31
2022-08-09T11:31:49.949Z,102850.75
2022-08-09T11:34:30.926Z,102838.78
2022-08-09T11:37:00.145Z,102842.75
2022-08-09T11:39:38.154Z,102833.13
2022-08-09T11:42:14.588Z,102827.81
2022-08-09T11:44:48.341Z,102835.22
2022-08-09T11:47:16.464Z,102832.63
2022-08-09T11:50:54.792Z,102825.94
2022-08-09T11:53:28.256Z,102835.06
2022-08-09T11:56:02.611Z,102824.97
2022-08-09T11:58:33.631Z,102832.28
2022-08-09T12:01:08.931Z,102825.06
2022-08-09T12:03:57.103Z,102832.25
2022-08-09T12:06:32.459Z,102825.56
2022-08-09T12:09:06.608Z,102823.91
2022-08-09T12:12:03.175Z,102825.06
2022-08-09T12:14:41.017Z,102816.41
2022-08-09T12:17:27.974Z,102814.56
2022-08-09T12:20:22.430Z,102816.72
2022-08-09T12:23:02.940Z,102813.59
2022-08-09T12:25:37.382Z,102807.03
2022-08-09T12:29:15.215Z,102802.94
2022-08-09T12:31:57.991Z,102803.84
2022-08-09T12:34:14.919Z,102803.97
2022-08-09T12:36:59.068Z,102801.16
2022-08-09T12:39:44.034Z,102793.94
2022-08-09T12:42:16.371Z,102802.34
2022-08-09T12:44:52.443Z,102797.78
2022-08-09T12:47:23.311Z,102796.59
2022-08-09T12:50:05.481Z,102808.84
2022-08-09T12:53:17.684Z,102790.59
2022-08-09T12:56:12.013Z,102796.69
2022-08-09T12:58:28.035Z,102792.97
2022-08-09T13:00:57.497Z,102789.59
2022-08-09T13:03:53.257Z,102784.84
2022-08-09T13:06:42.701Z,102792.44
2022-08-09T13:09:14.422Z,102798.09
2022-08-09T13:11:47.714Z,102783.34
2022-08-09T13:14:42.562Z,102779.03
2022-08-09T13:17:43.894Z,102784.63
2022-08-09T13:20:14.005Z,102783.06
2022-08-09T13:23:01.586Z,102785.16
2022-08-09T13:25:42.759Z,102783.50
2022-08-09T13:28:18.947Z,102780.06
2022-08-09T13:32:14.373Z,102775.06
2022-08-09T13:33:55.327Z,102760.66
2022-08-09T13:36:41.158Z,102763.81
2022-08-09T13:41:46.013Z,102761.38
2022-08-09T13:42:14.133Z,102746.75
2022-08-09T13:44:45.683Z,102745.00
2022-08-09T13:47:29.676Z,102732.38
2022-08-09T13:50:08.727Z,102735.16
2022-08-09T13:52:41.733Z,102741.81
2022-08-09T13:55:13.458Z,102733.81
2022-08-09T13:57:46.932Z,102736.88
2022-08-09T14:00:28.610Z,102727.22
2022-08-09T14:03:04.146Z,102729.41
2022-08-09T14:05:58.993Z,102742.28
2022-08-09T14:08:31.804Z,102740.75
2022-08-09T14:11:01.170Z,102738.72
2022-08-09T14:14:23.241Z,102755.03
2022-08-09T14:16:20.128Z,102746.41
2022-08-09T14:18:57.204Z,102750.97
2022-08-09T14:21:29.330Z,102753.78
2022-08-09T14:24:01.022Z,102746.41
2022-08-09T14:26:34.172Z,102753.19
2022-08-09T14:29:07.729Z,102743.31
2022-08-09T14:31:53.980Z,102743.25
2022-08-09T14:34:31.281Z,102746.31
2022-08-09T14:37:06.134Z,102741.75
2022-08-09T14:39:47.254Z,102750.69
2022-08-09T14:42:30.098Z,102744.41
2022-08-09T14:46:53.898Z,102745.78
2022-08-09T14:53:11.252Z,102744.31
2022-08-09T14:55:32.626Z,102752.28
2022-08-09T14:58:43.781Z,102746.84
2022-08-09T15:02:09.035Z,102745.28
2022-08-09T15:11:43.356Z,102737.78
2022-08-09T15:15:22.614Z,102763.00
2022-08-09T15:19:02.603Z,102749.06
2022-08-09T15:31:44.789Z,102737.25
2022-08-09T15:34:54.956Z,102731.78
2022-08-09T15:41:31.774Z,102693.75
2022-08-09T15:46:28.151Z,102730.13
2022-08-09T16:24:42.267Z,102707.16
2022-08-09T16:27:09.928Z,102708.94
2022-08-09T16:29:50.485Z,102705.91
2022-08-09T16:32:33.877Z,102722.22
2022-08-09T16:35:02.432Z,102706.34
2022-08-09T16:40:39.847Z,102703.75
2022-08-09T16:43:09.056Z,102703.44
2022-08-09T16:45:43.870Z,102703.72
2022-08-09T16:48:38.343Z,102704.06
2022-08-09T16:51:07.559Z,102706.44
2022-08-09T16:53:36.965Z,102712.84
2022-08-09T16:56:10.471Z,102718.56
2022-08-09T16:58:49.711Z,102714.59
2022-08-09T17:01:19.334Z,102716.13
2022-08-09T17:03:51.420Z,102714.47
2022-08-09T17:06:31.183Z,102710.66
2022-08-09T17:09:17.867Z,102708.66
2022-08-09T17:11:51.398Z,102718.38
2022-08-09T17:14:28.090Z,102708.91
2022-08-09T17:17:01.454Z,102723.50
2022-08-09T17:19:47.164Z,102702.91
2022-08-09T17:22:24.074Z,102710.31
2022-08-09T17:25:03.230Z,102705.50
2022-08-09T17:27:33.873Z,102708.09
2022-08-09T17:30:04.871Z,102718.25
2022-08-09T17:32:38.105Z,102723.69
2022-08-09T17:35:12.239Z,102726.91
2022-08-09T17:38:10.181Z,102716.25
2022-08-09T17:40:33.204Z,102712.03
2022-08-09T17:43:32.412Z,102716.88
2022-08-09T17:46:03.463Z,102713.50
2022-08-09T17:48:38.564Z,102718.22
2022-08-09T17:51:17.108Z,102711.69
2022-08-09T17:53:48.125Z,102717.72
2022-08-09T17:56:27.068Z,102717.81
2022-08-09T17:58:57.643Z,102714.25
2022-08-09T18:01:25.397Z,102714.53
2022-08-09T18:04:08.997Z,102711.78
2022-08-09T18:06:36.920Z,102719.91
2022-08-09T18:09:07.899Z,102701.97
2022-08-09T18:12:05.559Z,102711.88
2022-08-09T18:14:25.087Z,102712.78
2022-08-09T18:16:53.271Z,102715.44
2022-08-09T18:20:55.678Z,102715.25
2022-08-09T18:22:13.167Z,102706.69
2022-08-09T18:24:44.140Z,102713.72
2022-08-09T18:27:14.121Z,102712.00
2022-08-09T18:30:37.726Z,102706.75
2022-08-09T18:32:54.477Z,102706.06
2022-08-09T18:35:58.598Z,102704.38
2022-08-09T18:38:11.802Z,102708.25
2022-08-09T18:40:40.537Z,102706.75
2022-08-09T18:43:08.634Z,102706.06
2022-08-09T18:46:47.764Z,102709.44
2022-08-09T18:48:30.062Z,102702.56
2022-08-09T18:50:57.999Z,102712.38
2022-08-09T18:53:26.037Z,102719.66
2022-08-09T18:56:07.671Z,102716.97
2022-08-09T18:58:36.592Z,102710.09
2022-08-09T19:01:09.237Z,102710.34
2022-08-09T19:03:54.659Z,102728.16
2022-08-09T19:06:25.021Z,102722.94
2022-08-09T19:09:02.694Z,102721.22
2022-08-09T19:11:35.414Z,102719.59
2022-08-09T19:14:08.168Z,102722.38
2022-08-09T19:16:37.987Z,102727.91
2022-08-09T19:19:25.685Z,102727.06
2022-08-09T19:22:06.789Z,102742.94
2022-08-09T19:25:09.171Z,102741.38
2022-08-09T19:27:25.938Z,102739.88
2022-08-09T19:30:23.040Z,102736.47
2022-08-09T19:32:45.187Z,102734.84
2022-08-09T19:35:12.694Z,102738.47
2022-08-09T19:37:56.386Z,102742.97
2022-08-09T19:40:34.117Z,102751.00
2022-08-09T19:43:03.876Z,102752.16
2022-08-09T19:45:39.152Z,102759.22
2022-08-09T19:48:09.509Z,102759.22
2022-08-09T19:50:50.205Z,102762.97
2022-08-09T19:53:20.681Z,102760.44
2022-08-09T19:56:03.186Z,102746.59
2022-08-09T19:58:33.953Z,102764.28
2022-08-09T20:01:01.765Z,102763.53
2022-08-09T20:04:25.175Z,102767.97
2022-08-09T20:06:23.853Z,102776.81
2022-08-09T20:08:59.277Z,102781.28
2022-08-09T20:11:43.008Z,102779.63
2022-08-09T20:14:16.591Z,102785.03
2022-08-09T20:16:53.751Z,102780.72
2022-08-09T20:19:48.176Z,102782.53
2022-08-09T20:22:10.246Z,102784.38
2022-08-09T20:24:42.291Z,102787.09
2022-08-09T20:27:11.496Z,102788.06
2022-08-09T20:29:40.305Z,102793.47
2022-08-09T20:32:31.080Z,102786.47
2022-08-09T20:35:01.650Z,102784.81
2022-08-09T20:37:37.871Z,102782.22
2022-08-09T20:40:24.851Z,102783.13
2022-08-09T20:42:59.809Z,102781.50
2022-08-09T20:46:00.316Z,102779.81
2022-08-09T20:48:21.242Z,102779.91
2022-08-09T20:50:54.289Z,102777.34
2022-08-09T20:53:37.625Z,102785.34
2022-08-09T20:56:20.443Z,102780.97
2022-08-09T20:58:54.525Z,102790.69
2022-08-09T21:01:34.794Z,102782.06
2022-08-09T21:05:57.571Z,102788.25
2022-08-09T21:07:12.376Z,102794.44
2022-08-09T21:09:56.701Z,102785.75
2022-08-09T21:12:32.152Z,102791.03
2022-08-09T21:15:00.023Z,102784.00
2022-08-09T21:18:21.577Z,102787.59
2022-08-09T21:20:22.342Z,102766.69
2022-08-09T21:22:54.147Z,102773.75
2022-08-09T21:25:44.047Z,102789.56
2022-08-09T21:28:34.267Z,102786.03
2022-08-09T21:31:16.269Z,102786.06
2022-08-09T21:33:44.552Z,102777.31
2022-08-09T21:36:12.843Z,102778.25
2022-08-09T21:38:40.549Z,102786.19
2022-08-09T21:41:08.402Z,102770.47
2022-08-09T21:43:56.191Z,102783.66
2022-08-09T21:46:24.246Z,102776.63
2022-08-09T21:48:53.672Z,102774.88
2022-08-09T21:51:35.692Z,102763.56
2022-08-09T21:54:03.846Z,102771.47
2022-08-09T21:56:43.081Z,102777.66
2022-08-09T21:59:16.231Z,102779.47
2022-08-09T22:02:00.735Z,102771.66
2022-08-09T22:04:55.143Z,102777.84
2022-08-09T22:07:23.411Z,102770.84
2022-08-09T22:10:06.973Z,102786.66
2022-08-09T22:12:35.570Z,102784.00
2022-08-09T22:15:07.225Z,102780.53
2022-08-09T22:17:46.243Z,102783.22
2022-08-09T22:20:16.890Z,102785.00
2022-08-09T22:22:49.405Z,102785.03
2022-08-09T22:26:08.310Z,102791.25
2022-08-09T22:28:07.272Z,102793.03
2022-08-09T22:30:35.205Z,102792.19
2022-08-09T22:33:09.713Z,102788.72
2022-08-09T22:36:03.353Z,102792.22
2022-08-09T22:40:57.358Z,102780.03
2022-08-09T22:44:01.846Z,102776.56
2022-08-09T22:48:14.809Z,102785.34
2022-08-09T22:49:09.741Z,102774.88
2022-08-09T22:51:43.314Z,102792.41
2022-08-09T22:54:21.214Z,102785.41
2022-08-09T22:56:50.898Z,102797.72
2022-08-09T22:59:56.857Z,102787.19
2022-08-09T23:02:15.741Z,102781.94
2022-08-09T23:04:54.035Z,102791.56
2022-08-09T23:08:21.944Z,102802.09
2022-08-09T23:10:27.583Z,102791.63
2022-08-09T23:12:55.141Z,102786.34
2022-08-09T23:15:22.731Z,102792.50
2022-08-09T23:17:50.223Z,102786.38
2022-08-09T23:20:17.845Z,102783.75
2022-08-09T23:22:45.339Z,102784.66
2022-08-09T23:25:12.850Z,102785.50
2022-08-09T23:28:15.808Z,102780.28
2022-08-09T23:30:27.882Z,102784.66
2022-08-09T23:32:55.509Z,102782.91
2022-08-09T23:35:23.238Z,102776.75
2022-08-09T23:37:50.830Z,102772.38
2022-08-09T23:40:18.347Z,102768.00
2022-08-09T23:42:45.883Z,102765.38
2022-08-09T23:45:37.463Z,102764.50
2022-08-09T23:48:04.274Z,102772.38
2022-08-09T23:50:35.786Z,102769.78
2022-08-09T23:53:03.372Z,102767.16
2022-08-09T23:55:31.090Z,102775.94
2022-08-09T23:58:10.651Z,102773.28
